This is the latest recevied weather packets stored in our database for station/object NN5DX-12. If no packets are shown the sender has not sent any weather packets the latest 10 day(s).
| Time | Temp. | Humidity | Pressure | Rain* | Wind** | Luminosity | Snow |
|---|---|---|---|---|---|---|---|
| 1778094018 | -1.67° C | 83% | 1019.9 hPa | 0 mm | - | - | - |
| 1778093718 | -1.67° C | 82% | 1020 hPa | 0 mm | - | - | - |
| 1778093418 | -1.67° C | 81% | 1019.8 hPa | 0 mm | - | - | - |
| 1778093117 | -1.11° C | 81% | 1020.6 hPa | 0 mm | - | - | - |
| 1778092818 | -1.11° C | 83% | 1020.6 hPa | 0 mm | - | - | - |
| 1778092519 | -1.67° C | 82% | 1020 hPa | 0 mm | - | - | - |
| 1778092218 | -2.22° C | 81% | 1020.1 hPa | 0 mm | - | - | - |
| 1778091918 | -2.22° C | 83% | 1020.1 hPa | 0 mm | - | - | - |
| 1778091618 | -2.22° C | 83% | 1020.1 hPa | 0 mm | - | - | - |
| 1778091318 | -2.22° C | 83% | 1020.2 hPa | 0 mm | - | - | - |
| 1778091017 | -2.78° C | 85% | 1019.6 hPa | 0 mm | - | - | - |
| 1778090717 | -2.78° C | 84% | 1019.5 hPa | 0 mm | - | - | - |
| 1778090418 | -2.78° C | 83% | 1019.6 hPa | 0 mm | - | - | - |
| 1778090117 | -2.22° C | 84% | 1020.1 hPa | 0 mm | - | - | - |
| 1778089818 | -2.22° C | 84% | 1020 hPa | 0 mm | - | - | - |
| 1778089518 | -2.78° C | 87% | 1019.5 hPa | 0 mm | - | - | - |
| 1778089218 | -3.33° C | 86% | 1019.5 hPa | 0 mm | - | - | - |
| 1778088917 | -3.33° C | 88% | 1019.5 hPa | 0 mm | - | - | - |
| 1778088617 | -3.33° C | 89% | 1019.5 hPa | 0 mm | - | - | - |
| 1778088317 | -3.33° C | 88% | 1018.7 hPa | 0 mm | - | - | - |
| 1778088017 | -3.33° C | 88% | 1018.6 hPa | 0 mm | - | - | - |
| 1778087717 | -3.33° C | 89% | 1018.7 hPa | 0 mm | - | - | - |
| 1778087418 | -3.89° C | 88% | 1018.6 hPa | 0 mm | - | - | - |
| 1778087116 | -3.33° C | 88% | 1018.7 hPa | 0 mm | - | - | - |
| 1778086817 | -3.33° C | 88% | 1019.1 hPa | 0 mm | - | - | - |
* Rain latest hour (hover to see other rain measurements)
** Current wind speed in m/s (hover to see current wind gust speed)